createdAt,value
2022-11-13T00:03:18.123Z,98654.13
2022-11-13T00:08:42.079Z,98648.88
2022-11-13T00:14:03.909Z,98633.31
2022-11-13T00:19:26.093Z,98635.69
2022-11-13T00:24:49.455Z,98629.25
2022-11-13T00:30:17.848Z,98627.38
2022-11-13T00:35:41.240Z,98618.03
2022-11-13T00:41:04.799Z,98619.91
2022-11-13T00:46:26.690Z,98610.34
2022-11-13T00:51:48.841Z,98604.50
2022-11-13T00:57:12.299Z,98595.81
2022-11-13T01:02:33.983Z,98592.41
2022-11-13T01:07:56.379Z,98597.66
2022-11-13T01:13:19.616Z,98587.16
2022-11-13T01:18:42.873Z,98589.13
2022-11-13T01:24:05.166Z,98579.75
2022-11-13T01:29:28.593Z,98574.47
2022-11-13T01:34:50.630Z,98566.72
2022-11-13T01:40:15.127Z,98566.06
2022-11-13T01:46:09.282Z,98561.78
2022-11-13T01:51:35.269Z,98553.25
2022-11-13T01:56:58.619Z,98553.31
2022-11-13T02:02:22.308Z,98545.56
2022-11-13T02:07:44.320Z,98550.06
2022-11-13T02:13:07.150Z,98538.66
2022-11-13T02:18:32.534Z,98521.53
2022-11-13T02:24:04.771Z,98512.06
2022-11-13T02:29:28.555Z,98518.09
2022-11-13T02:34:50.685Z,98515.56
2022-11-13T02:40:13.804Z,98518.34
2022-11-13T02:45:38.701Z,98519.00
2022-11-13T02:51:01.496Z,98520.91
2022-11-13T02:56:23.448Z,98508.88
2022-11-13T03:01:47.576Z,98510.81
2022-11-13T03:07:09.764Z,98511.63
2022-11-13T03:12:31.644Z,98518.50
2022-11-13T03:17:55.157Z,98512.56
2022-11-13T03:23:17.110Z,98510.09
2022-11-13T03:28:39.382Z,98510.94
2022-11-13T03:34:02.505Z,98508.41
2022-11-13T03:39:24.757Z,98504.22
2022-11-13T03:44:46.801Z,98505.06
2022-11-13T03:50:10.965Z,98503.38
2022-11-13T03:55:32.803Z,98496.44
2022-11-13T04:00:55.512Z,98492.97
2022-11-13T04:06:19.417Z,98498.25
2022-11-13T04:11:41.646Z,98504.34
2022-11-13T04:17:03.427Z,98501.81
2022-11-13T04:22:27.012Z,98493.09
2022-11-13T04:27:50.218Z,98489.88
2022-11-13T04:33:12.128Z,98482.09
2022-11-13T04:38:35.771Z,98470.91
2022-11-13T04:43:57.979Z,98466.72
2022-11-13T04:49:19.728Z,98469.31
2022-11-13T04:54:43.113Z,98460.66
2022-11-13T05:00:06.875Z,98464.22
2022-11-13T05:05:29.814Z,98469.50
2022-11-13T05:10:53.290Z,98469.75
2022-11-13T05:16:16.393Z,98454.03
2022-11-13T05:21:39.711Z,98455.84
2022-11-13T05:27:03.411Z,98450.69
2022-11-13T05:32:25.501Z,98440.41
2022-11-13T05:37:47.549Z,98439.50
2022-11-13T05:43:11.037Z,98429.16
2022-11-13T05:48:33.674Z,98424.84
2022-11-13T05:53:56.310Z,98422.38
2022-11-13T05:59:19.822Z,98411.97
2022-11-13T06:04:42.044Z,98405.94
2022-11-13T06:10:04.017Z,98405.16
2022-11-13T06:15:27.271Z,98399.16
2022-11-13T06:20:49.464Z,98400.94
2022-11-13T06:26:13.452Z,98408.72
2022-11-13T06:31:37.917Z,98395.59
2022-11-13T06:37:01.820Z,98398.38
2022-11-13T06:42:24.305Z,98397.50
2022-11-13T06:47:47.703Z,98391.34
2022-11-13T06:53:09.614Z,98393.84
2022-11-13T06:58:31.861Z,98389.47
2022-11-13T07:03:55.718Z,98385.84
2022-11-13T07:09:18.011Z,98370.91
2022-11-13T07:14:39.846Z,98366.59
2022-11-13T07:20:03.159Z,98360.38
2022-11-13T07:25:25.388Z,98355.94
2022-11-13T07:30:47.686Z,98349.75
2022-11-13T07:36:12.153Z,98355.75
2022-11-13T07:41:34.401Z,98355.41
2022-11-13T07:46:56.530Z,98352.66
2022-11-13T07:52:20.293Z,98351.69
2022-11-13T07:57:42.102Z,98355.00
2022-11-13T08:03:07.996Z,98360.97
2022-11-13T08:08:31.639Z,98359.00
2022-11-13T08:13:54.143Z,98358.31
2022-11-13T08:19:16.293Z,98361.25
2022-11-13T08:24:39.789Z,98352.59
2022-11-13T08:30:01.993Z,98355.75
2022-11-13T08:35:29.154Z,98349.88
2022-11-13T08:40:53.432Z,98336.00
2022-11-13T08:46:16.010Z,98333.28
2022-11-13T08:51:37.811Z,98329.22
2022-11-13T08:57:05.754Z,98316.16
2022-11-13T09:02:28.851Z,98304.34
2022-11-13T09:07:51.398Z,98301.09
2022-11-13T09:13:14.773Z,98295.25
2022-11-13T09:18:37.120Z,98300.69
2022-11-13T09:23:59.149Z,98289.53
2022-11-13T09:29:23.398Z,98284.66
2022-11-13T09:34:45.458Z,98280.03
2022-11-13T09:40:12.864Z,98282.38
2022-11-13T09:45:36.354Z,98270.78
2022-11-13T09:51:01.810Z,98274.25
2022-11-13T09:56:30.522Z,98274.47
2022-11-13T10:02:01.236Z,98262.19
2022-11-13T10:07:34.404Z,98260.38
2022-11-13T10:12:59.872Z,98253.75
2022-11-13T10:18:28.681Z,98248.22
2022-11-13T10:23:56.980Z,98234.66
2022-11-13T10:29:21.371Z,98230.00
2022-11-13T10:34:47.592Z,98220.28
2022-11-13T10:40:10.236Z,98216.09
2022-11-13T10:45:32.188Z,98208.84
2022-11-13T10:50:57.873Z,98205.97
2022-11-13T10:56:27.634Z,98195.69
2022-11-13T11:01:50.240Z,98192.91
2022-11-13T11:07:21.547Z,98172.59
2022-11-13T11:12:44.115Z,98166.91
2022-11-13T11:18:08.845Z,98159.16
2022-11-13T11:23:41.354Z,98148.56
2022-11-13T11:29:18.278Z,98132.63
2022-11-13T11:34:45.757Z,98130.81
2022-11-13T11:40:28.239Z,98118.75
2022-11-13T11:45:50.857Z,98104.09
2022-11-13T11:51:22.573Z,98101.97
2022-11-13T11:56:48.859Z,98090.97
2022-11-13T12:02:50.790Z,98088.16
2022-11-13T12:08:24.061Z,98079.91
2022-11-13T12:13:58.047Z,98071.41
2022-11-13T12:19:31.151Z,98053.91
2022-11-13T12:25:07.846Z,98045.56
2022-11-13T12:30:42.854Z,98044.63
2022-11-13T12:36:06.182Z,98045.31
2022-11-13T12:41:34.578Z,98041.25
2022-11-13T12:47:01.631Z,98035.03
2022-11-13T12:52:25.112Z,98020.13
2022-11-13T12:57:49.322Z,98020.88
2022-11-13T13:03:31.813Z,98020.13
2022-11-13T13:09:17.191Z,98008.16
2022-11-13T13:15:10.286Z,97991.72
2022-11-13T13:20:37.197Z,97997.38
2022-11-13T13:26:14.887Z,97993.00
2022-11-13T13:31:46.266Z,97982.38
2022-11-13T13:37:22.137Z,97972.72
2022-11-13T13:42:56.968Z,97971.22
2022-11-13T13:48:25.187Z,97967.16
2022-11-13T13:53:50.244Z,97961.50
2022-11-13T13:59:18.050Z,97951.19
2022-11-13T14:04:45.930Z,97938.31
2022-11-13T14:10:17.693Z,97936.75
2022-11-13T14:15:39.540Z,97938.56
2022-11-13T14:21:04.053Z,97933.84
2022-11-13T14:26:27.549Z,97936.16
2022-11-13T14:31:50.213Z,97931.09
2022-11-13T14:37:23.664Z,97925.28
2022-11-13T14:42:50.482Z,97933.44
2022-11-13T14:48:20.033Z,97929.03
2022-11-13T14:53:43.765Z,97925.09
2022-11-13T14:59:15.616Z,97924.63
2022-11-13T15:04:42.021Z,97916.78
2022-11-13T15:10:04.793Z,97912.34
2022-11-13T15:15:31.405Z,97918.38
2022-11-13T15:20:53.586Z,97925.38
2022-11-13T15:26:16.080Z,97919.44
2022-11-13T15:31:43.265Z,97925.53
2022-11-13T15:37:12.230Z,97945.19
2022-11-13T15:42:36.657Z,97950.13
2022-11-13T15:48:00.237Z,97941.06
2022-11-13T15:53:22.610Z,97934.25
2022-11-13T15:58:44.645Z,97947.09
2022-11-13T16:04:08.936Z,97946.78
2022-11-13T16:09:30.949Z,97948.09
2022-11-13T16:14:53.063Z,97944.94
2022-11-13T16:20:18.265Z,97945.16
2022-11-13T16:25:40.603Z,97946.09
2022-11-13T16:31:02.631Z,97956.63
2022-11-13T16:36:27.730Z,97951.69
2022-11-13T16:41:49.867Z,97956.50
2022-11-13T16:47:22.513Z,97943.13
2022-11-13T16:52:45.939Z,97950.00
2022-11-13T16:58:08.136Z,97948.50
2022-11-13T17:03:30.515Z,97946.59
2022-11-13T17:08:55.653Z,97949.69
2022-11-13T17:14:18.530Z,97943.47
2022-11-13T17:19:44.051Z,97945.22
2022-11-13T17:25:08.577Z,97948.78
2022-11-13T17:30:30.739Z,97960.94
2022-11-13T17:35:56.096Z,97955.53
2022-11-13T17:41:19.847Z,97957.28
2022-11-13T17:46:41.996Z,97954.56
2022-11-13T17:52:04.025Z,97948.63
2022-11-13T17:57:27.425Z,97950.63
2022-11-13T18:02:50.115Z,97941.06
2022-11-13T18:08:12.835Z,97939.34
2022-11-13T18:13:37.443Z,97929.47
2022-11-13T18:19:01.086Z,97920.53
2022-11-13T18:24:23.398Z,97930.25
2022-11-13T18:29:47.550Z,97922.59
2022-11-13T18:35:10.295Z,97926.94
2022-11-13T18:40:32.662Z,97921.38
2022-11-13T18:46:00.499Z,97912.47
2022-11-13T18:51:24.761Z,97925.56
2022-11-13T18:56:47.045Z,97925.41
2022-11-13T19:02:12.786Z,97893.69
2022-11-13T19:07:34.883Z,97887.03
2022-11-13T19:12:56.629Z,97874.75
2022-11-13T19:18:20.329Z,97863.22
2022-11-13T19:23:43.339Z,97869.25
2022-11-13T19:29:06.544Z,97865.63
2022-11-13T19:34:30.065Z,97856.41
2022-11-13T19:39:52.362Z,97853.63
2022-11-13T19:45:14.778Z,97846.34
2022-11-13T19:50:38.652Z,97846.94
2022-11-13T19:56:01.065Z,97834.03
2022-11-13T20:01:25.299Z,97845.03
2022-11-13T20:06:50.789Z,97847.91
2022-11-13T20:12:13.232Z,97841.34
2022-11-13T20:17:35.220Z,97845.44
2022-11-13T20:22:58.761Z,97844.78
2022-11-13T20:28:22.421Z,97833.69
2022-11-13T20:33:44.999Z,97827.69
2022-11-13T20:39:09.586Z,97833.75
2022-11-13T20:44:31.596Z,97829.75
2022-11-13T20:49:53.581Z,97840.06
2022-11-13T20:55:17.623Z,97818.84
2022-11-13T21:00:39.784Z,97822.50
2022-11-13T21:06:02.196Z,97825.25
2022-11-13T21:11:26.561Z,97816.34
2022-11-13T21:16:48.578Z,97821.78
2022-11-13T21:22:10.931Z,97822.84
2022-11-13T21:27:35.073Z,97818.47
2022-11-13T21:33:00.065Z,97814.41
2022-11-13T21:38:22.315Z,97812.66
2022-11-13T21:43:46.128Z,97797.09
2022-11-13T21:49:10.343Z,97790.56
2022-11-13T21:54:32.701Z,97777.81
2022-11-13T21:59:56.015Z,97771.19
2022-11-13T22:05:18.194Z,97774.09
2022-11-13T22:10:40.337Z,97768.22
2022-11-13T22:16:05.605Z,97766.69
2022-11-13T22:21:29.626Z,97761.59
2022-11-13T22:26:51.580Z,97764.19
2022-11-13T22:32:15.116Z,97752.63
2022-11-13T22:37:36.929Z,97744.91
2022-11-13T22:42:59.093Z,97746.47
2022-11-13T22:48:22.531Z,97738.59
2022-11-13T22:53:48.685Z,97738.31
2022-11-13T22:59:12.490Z,97729.06
2022-11-13T23:04:35.912Z,97714.16
2022-11-13T23:09:57.946Z,97699.00
2022-11-13T23:15:19.872Z,97696.28
2022-11-13T23:20:44.419Z,97688.53
2022-11-13T23:26:07.962Z,97669.84
2022-11-13T23:31:29.960Z,97668.81
2022-11-13T23:36:53.421Z,97667.75
2022-11-13T23:42:20.706Z,97661.09
2022-11-13T23:47:55.405Z,97653.91
2022-11-13T23:53:19.573Z,97649.72
2022-11-13T23:58:41.831Z,97650.38
